Time;durP1;ratioP1;P1;durP2;ratioP2;P2;SDS_P1;SDS_P2;PMS_P1;PMS_P2;Temp;Humidity;BMP_temperature;BMP_pressure;BME280_temperature;BME280_humidity;BME280_pressure;Samples;Min_cycle;Max_cycle;Signal;HPM_P1;HPM_P2
2023/06/28 00:02:21;;;;;;;1.10;0.90;;;26.10;40.20;;;;;;5005965;28;20038;-61
2023/06/28 00:04:46;;;;;;;1.20;0.90;;;26.10;40.20;;;;;;5002410;28;20037;-61
2023/06/28 00:07:12;;;;;;;1.10;0.90;;;26.10;40.20;;;;;;5000840;28;20040;-61
2023/06/28 00:09:37;;;;;;;1.45;1.00;;;26.10;40.20;;;;;;5002433;28;20038;-61
2023/06/28 00:12:03;;;;;;;2.17;0.98;;;26.10;40.30;;;;;;4999846;28;20139;-60
2023/06/28 00:14:29;;;;;;;1.33;0.85;;;26.10;40.30;;;;;;5003769;28;20109;-61
2023/06/28 00:16:55;;;;;;;1.33;0.90;;;26.10;40.30;;;;;;5002433;28;20449;-62
2023/06/28 00:19:26;;;;;;;1.00;0.90;;;26.10;40.30;;;;;;5000658;28;20037;-61
2023/06/28 00:21:53;;;;;;;1.45;0.88;;;26.10;40.30;;;;;;5001552;28;20038;-61
2023/06/28 00:24:19;;;;;;;1.08;0.85;;;26.10;40.40;;;;;;4999657;28;20029;-60
2023/06/28 00:26:44;;;;;;;0.90;0.80;;;26.10;40.40;;;;;;5003073;28;20489;-61
2023/06/28 00:29:10;;;;;;;1.23;0.90;;;26.10;40.40;;;;;;5002667;28;20038;-60
2023/06/28 00:31:36;;;;;;;1.70;0.90;;;26.10;40.40;;;;;;5003125;28;20751;-61
2023/06/28 00:34:01;;;;;;;1.50;1.00;;;26.10;40.40;;;;;;5000690;28;20038;-60
2023/06/28 00:36:27;;;;;;;1.30;1.00;;;26.10;40.50;;;;;;5001926;28;20469;-60
2023/06/28 00:38:52;;;;;;;1.10;0.82;;;26.10;40.40;;;;;;4999879;28;20024;-60
2023/06/28 00:41:18;;;;;;;1.13;0.82;;;26.10;40.50;;;;;;5003045;28;20038;-61
2023/06/28 00:43:43;;;;;;;1.40;1.08;;;26.10;40.50;;;;;;5001690;28;20022;-60
2023/06/28 00:46:09;;;;;;;1.08;0.80;;;26.10;40.50;;;;;;4998066;28;20097;-61
2023/06/28 00:48:35;;;;;;;1.20;0.90;;;26.10;40.50;;;;;;5001565;28;20022;-61
2023/06/28 00:51:03;;;;;;;1.17;0.90;;;26.10;40.50;;;;;;5002152;28;20458;-60
2023/06/28 00:53:30;;;;;;;1.10;0.80;;;26.00;41.00;;;;;;4999761;28;20038;-61
2023/06/28 00:55:57;;;;;;;1.60;0.98;;;26.10;40.60;;;;;;5002670;28;20038;-61
2023/06/28 00:58:25;;;;;;;1.48;0.90;;;26.00;40.50;;;;;;5000225;28;20514;-60
2023/06/28 01:00:51;;;;;;;1.20;1.00;;;26.00;40.50;;;;;;4999285;28;20109;-60
2023/06/28 01:03:18;;;;;;;1.40;1.00;;;26.00;40.50;;;;;;5003912;28;20116;-61
2023/06/28 01:05:46;;;;;;;1.17;0.85;;;26.00;40.60;;;;;;4999862;28;20061;-61
2023/06/28 01:08:13;;;;;;;1.20;0.90;;;26.00;40.60;;;;;;4998783;28;20402;-61
2023/06/28 01:10:39;;;;;;;1.33;0.93;;;26.00;40.60;;;;;;5000595;28;20097;-61
2023/06/28 01:13:05;;;;;;;1.10;0.80;;;26.00;40.60;;;;;;5001991;28;20030;-60
2023/06/28 01:15:30;;;;;;;1.10;0.90;;;26.10;40.70;;;;;;5001912;28;20379;-60
2023/06/28 01:17:56;;;;;;;1.05;0.85;;;26.00;40.60;;;;;;5000484;28;20032;-60
2023/06/28 01:20:21;;;;;;;1.08;0.82;;;26.00;40.60;;;;;;4999911;28;20105;-60
2023/06/28 01:22:53;;;;;;;1.85;0.90;;;26.00;40.70;;;;;;4999173;28;20494;-60
2023/06/28 01:25:19;;;;;;;1.17;0.90;;;26.00;40.70;;;;;;5001141;28;20109;-61
2023/06/28 01:27:46;;;;;;;1.23;0.80;;;26.00;40.70;;;;;;5001937;28;20168;-60
2023/06/28 01:30:14;;;;;;;1.17;0.98;;;26.00;40.70;;;;;;5005598;28;20061;-60
2023/06/28 01:32:41;;;;;;;0.98;0.80;;;26.00;40.70;;;;;;5000943;28;20117;-60
2023/06/28 01:35:07;;;;;;;0.95;0.80;;;26.00;40.70;;;;;;5002439;28;20041;-62
2023/06/28 01:37:33;;;;;;;0.93;0.80;;;26.00;40.80;;;;;;4996501;28;20034;-61
2023/06/28 01:40:00;;;;;;;1.00;0.80;;;26.00;40.80;;;;;;4997126;28;20145;-61
2023/06/28 01:42:26;;;;;;;1.23;0.90;;;26.00;40.80;;;;;;5002526;28;20026;-61
2023/06/28 01:44:52;;;;;;;1.80;0.90;;;26.00;40.80;;;;;;5000681;28;20025;-61
2023/06/28 01:47:18;;;;;;;1.35;0.95;;;26.00;40.80;;;;;;4999262;28;20382;-61
2023/06/28 01:49:44;;;;;;;1.35;1.00;;;26.00;40.80;;;;;;4997884;28;20172;-61
2023/06/28 01:52:09;;;;;;;1.00;0.88;;;26.00;40.80;;;;;;4999176;28;20363;-61
2023/06/28 01:54:35;;;;;;;0.70;0.70;;;26.00;40.80;;;;;;4999603;28;20040;-60
2023/06/28 01:57:01;;;;;;;2.00;1.10;;;26.00;40.80;;;;;;5001107;28;20030;-61
2023/06/28 01:59:27;;;;;;;1.20;0.90;;;26.00;40.80;;;;;;4999770;28;20033;-60
2023/06/28 02:01:52;;;;;;;1.05;0.90;;;26.00;40.90;;;;;;4999428;28;20486;-60
2023/06/28 02:04:18;;;;;;;0.80;0.77;;;26.00;40.90;;;;;;4997793;28;20026;-61
2023/06/28 02:06:43;;;;;;;1.20;1.00;;;26.00;40.90;;;;;;4996733;28;20034;-60
2023/06/28 02:09:09;;;;;;;0.85;0.80;;;26.00;40.90;;;;;;4999038;28;20026;-61
2023/06/28 02:11:34;;;;;;;1.10;0.90;;;26.00;40.90;;;;;;4996766;28;20497;-61
2023/06/28 02:14:00;;;;;;;1.20;0.90;;;26.00;40.90;;;;;;4998898;28;20038;-61
2023/06/28 02:16:27;;;;;;;0.88;0.80;;;26.00;40.90;;;;;;5000347;28;20073;-60
2023/06/28 02:18:53;;;;;;;1.10;0.85;;;26.00;40.90;;;;;;5001003;28;20704;-61
2023/06/28 02:21:18;;;;;;;0.82;0.77;;;26.00;40.90;;;;;;4999715;28;20126;-61
2023/06/28 02:23:44;;;;;;;0.80;0.80;;;26.00;40.90;;;;;;4998341;28;20022;-61
2023/06/28 02:26:10;;;;;;;0.82;0.80;;;26.00;40.90;;;;;;4999257;28;20022;-61
2023/06/28 02:28:35;;;;;;;1.15;0.90;;;26.00;40.90;;;;;;4999788;28;20130;-61
2023/06/28 02:31:01;;;;;;;0.93;0.80;;;26.00;40.90;;;;;;4996838;28;20022;-61
2023/06/28 02:33:26;;;;;;;0.90;0.80;;;26.00;41.00;;;;;;4997251;28;20097;-60
2023/06/28 02:35:52;;;;;;;0.90;0.80;;;26.00;41.00;;;;;;4999191;28;20509;-61
2023/06/28 02:38:17;;;;;;;1.02;0.90;;;26.00;41.00;;;;;;4998284;28;20037;-61
2023/06/28 02:40:43;;;;;;;1.30;1.00;;;26.00;41.00;;;;;;4997747;28;20092;-61
2023/06/28 02:43:09;;;;;;;1.02;0.80;;;26.00;41.00;;;;;;4997479;28;20064;-61
2023/06/28 02:45:34;;;;;;;1.00;0.90;;;26.00;41.00;;;;;;4998546;28;20018;-61
2023/06/28 02:48:00;;;;;;;1.10;0.80;;;26.00;41.00;;;;;;4997615;28;20478;-61
2023/06/28 02:50:25;;;;;;;0.85;0.75;;;26.00;41.00;;;;;;5001720;28;20120;-61
2023/06/28 02:52:51;;;;;;;1.30;0.90;;;26.00;41.00;;;;;;4997861;28;20034;-61
2023/06/28 02:55:17;;;;;;;1.17;0.88;;;26.00;41.00;;;;;;4999155;28;20042;-60
2023/06/28 02:57:42;;;;;;;1.42;0.90;;;26.00;41.10;;;;;;4998993;28;20505;-60
2023/06/28 03:00:08;;;;;;;1.08;0.80;;;25.90;41.00;;;;;;5000901;28;20372;-60
2023/06/28 03:02:34;;;;;;;0.90;0.80;;;25.90;41.00;;;;;;4999428;28;20416;-60
2023/06/28 03:05:00;;;;;;;0.80;0.77;;;26.00;41.00;;;;;;5000125;28;20032;-60
2023/06/28 03:07:25;;;;;;;0.85;0.80;;;25.90;41.00;;;;;;4997857;28;20104;-60
2023/06/28 03:09:51;;;;;;;0.73;0.73;;;25.90;41.00;;;;;;4996519;28;20026;-62
2023/06/28 03:12:16;;;;;;;1.10;0.90;;;25.90;41.00;;;;;;4999050;28;20034;-61
2023/06/28 03:14:43;;;;;;;0.90;0.80;;;25.90;41.00;;;;;;4998987;28;20026;-60
2023/06/28 03:17:09;;;;;;;1.00;0.85;;;25.90;41.00;;;;;;4999095;28;20042;-60
2023/06/28 03:19:35;;;;;;;1.27;0.90;;;26.00;41.10;;;;;;4995896;28;20041;-60
2023/06/28 03:22:01;;;;;;;1.20;0.90;;;25.90;41.00;;;;;;4998556;28;20426;-61
2023/06/28 03:24:27;;;;;;;1.05;0.90;;;25.90;41.10;;;;;;4997118;28;20022;-61
2023/06/28 03:26:52;;;;;;;1.10;0.82;;;25.90;41.10;;;;;;5002716;28;20450;-61
2023/06/28 03:29:18;;;;;;;0.98;0.80;;;25.90;41.10;;;;;;5003577;28;20038;-61
2023/06/28 03:31:44;;;;;;;1.02;0.85;;;25.90;41.10;;;;;;5001852;28;20118;-61
2023/06/28 03:34:09;;;;;;;1.27;0.90;;;25.90;41.10;;;;;;5001205;28;20498;-61
2023/06/28 03:36:35;;;;;;;0.80;0.70;;;25.90;41.10;;;;;;5001581;28;20034;-61
2023/06/28 03:39:01;;;;;;;0.82;0.77;;;25.90;41.10;;;;;;5001395;28;20468;-61
2023/06/28 03:41:27;;;;;;;1.00;0.90;;;25.90;41.10;;;;;;5002588;28;20037;-60
2023/06/28 03:43:53;;;;;;;0.82;0.80;;;25.90;41.10;;;;;;5002330;28;20036;-60
2023/06/28 03:46:18;;;;;;;1.00;0.80;;;25.90;41.10;;;;;;5002263;28;20117;-62
2023/06/28 03:48:44;;;;;;;1.20;0.80;;;25.90;41.20;;;;;;5003070;28;20026;-61
2023/06/28 03:51:10;;;;;;;1.10;0.80;;;25.90;41.20;;;;;;5001207;28;20105;-62
2023/06/28 03:53:35;;;;;;;1.10;0.88;;;25.90;41.20;;;;;;4999395;28;20449;-62
2023/06/28 03:56:01;;;;;;;0.77;0.77;;;25.90;41.20;;;;;;5003399;28;20040;-61
2023/06/28 03:58:27;;;;;;;0.95;0.75;;;25.90;41.20;;;;;;5001245;28;20030;-61
2023/06/28 04:00:52;;;;;;;1.15;0.90;;;25.90;41.20;;;;;;5003094;28;20129;-61
2023/06/28 04:03:19;;;;;;;1.13;0.90;;;25.90;41.30;;;;;;5003827;28;20018;-61
2023/06/28 04:05:44;;;;;;;1.05;0.80;;;25.80;41.20;;;;;;5001381;28;20030;-62
2023/06/28 04:08:11;;;;;;;0.80;0.75;;;25.90;41.30;;;;;;5000763;28;20401;-62
2023/06/28 04:10:37;;;;;;;1.08;0.88;;;25.90;41.30;;;;;;5000275;28;20075;-62
2023/06/28 04:13:03;;;;;;;1.00;0.80;;;25.90;41.30;;;;;;5001458;28;20034;-62
2023/06/28 04:15:29;;;;;;;1.35;0.88;;;25.90;41.30;;;;;;5000969;28;20045;-61
2023/06/28 04:17:55;;;;;;;0.93;0.75;;;25.80;41.30;;;;;;5000542;28;20061;-62
2023/06/28 04:20:20;;;;;;;1.17;0.90;;;25.90;41.40;;;;;;5000330;28;20055;-62
2023/06/28 04:22:46;;;;;;;0.95;0.80;;;25.80;41.40;;;;;;5000869;28;20068;-61
2023/06/28 04:25:12;;;;;;;0.80;0.80;;;25.80;41.40;;;;;;4998880;28;20066;-61
2023/06/28 04:27:37;;;;;;;1.27;0.93;;;25.80;41.40;;;;;;5001989;28;20037;-61
2023/06/28 04:30:03;;;;;;;0.95;0.80;;;25.80;42.00;;;;;;5003052;28;20027;-61
2023/06/28 04:32:29;;;;;;;1.15;0.90;;;25.80;41.50;;;;;;5001201;28;20037;-61
2023/06/28 04:34:58;;;;;;;1.30;0.90;;;25.80;41.50;;;;;;5001775;28;20615;-61
2023/06/28 04:37:27;;;;;;;1.38;0.85;;;25.80;41.60;;;;;;5000983;28;20108;-61
2023/06/28 04:39:56;;;;;;;1.00;0.90;;;25.80;41.60;;;;;;5002249;28;20445;-61
2023/06/28 04:42:22;;;;;;;1.50;0.90;;;25.80;41.60;;;;;;4999824;28;20025;-61
2023/06/28 04:44:48;;;;;;;1.15;0.80;;;25.80;41.60;;;;;;5002917;28;20041;-61
2023/06/28 04:47:15;;;;;;;1.45;1.10;;;25.80;41.60;;;;;;5001469;28;20041;-61
2023/06/28 04:49:49;;;;;;;1.05;0.80;;;25.80;41.60;;;;;;5001664;28;20061;-62
2023/06/28 04:52:19;;;;;;;1.45;1.00;;;25.80;41.70;;;;;;5004303;28;20027;-61
2023/06/28 04:54:48;;;;;;;1.23;0.93;;;25.80;41.60;;;;;;5001070;28;20021;-62
2023/06/28 04:57:15;;;;;;;;;;;25.80;41.70;;;;;;5016445;28;20064;-61
2023/06/28 04:59:41;;;;;;;0.80;0.70;;;25.80;41.70;;;;;;5002730;28;20238;-62
2023/06/28 05:02:06;;;;;;;0.85;0.80;;;25.80;41.70;;;;;;5000605;28;20026;-62
2023/06/28 05:04:32;;;;;;;1.30;1.00;;;25.80;41.70;;;;;;5001429;28;20113;-62
2023/06/28 05:07:09;;;;;;;1.00;0.85;;;25.80;41.70;;;;;;4998894;28;20097;-61
2023/06/28 05:09:35;;;;;;;1.58;1.00;;;25.80;41.70;;;;;;4999667;28;20018;-61
2023/06/28 05:12:02;;;;;;;1.00;0.80;;;25.80;41.70;;;;;;4999567;28;20646;-61
2023/06/28 05:14:29;;;;;;;1.10;0.90;;;25.80;41.70;;;;;;4999110;28;20548;-62
2023/06/28 05:16:56;;;;;;;1.10;0.80;;;25.80;41.70;;;;;;5001218;28;20040;-66
2023/06/28 05:19:22;;;;;;;1.10;0.80;;;25.80;41.70;;;;;;5002095;28;20022;-66
2023/06/28 05:21:48;;;;;;;1.25;1.00;;;25.80;41.70;;;;;;5001195;28;20500;-66
2023/06/28 05:24:16;;;;;;;1.30;0.82;;;25.80;41.80;;;;;;4998863;28;20065;-67
2023/06/28 05:26:42;;;;;;;1.20;0.90;;;25.80;41.80;;;;;;5000842;28;20545;-66
2023/06/28 05:29:07;;;;;;;1.00;0.90;;;25.80;41.80;;;;;;5000362;28;20196;-66
2023/06/28 05:31:33;;;;;;;0.98;0.80;;;25.80;41.80;;;;;;5000393;28;20410;-66
2023/06/28 05:33:58;;;;;;;0.98;0.88;;;25.70;41.70;;;;;;4999237;28;20055;-66
2023/06/28 05:36:24;;;;;;;0.80;0.77;;;25.70;41.70;;;;;;4998228;28;20036;-66
2023/06/28 05:38:50;;;;;;;0.70;0.70;;;25.70;41.70;;;;;;5001529;28;20030;-66
2023/06/28 05:41:16;;;;;;;1.30;0.90;;;25.70;41.80;;;;;;4998571;28;20055;-66
2023/06/28 05:43:44;;;;;;;1.20;0.90;;;25.70;41.70;;;;;;4997719;28;20027;-66
2023/06/28 05:46:10;;;;;;;1.00;0.82;;;25.70;41.80;;;;;;5000090;28;20050;-66
2023/06/28 05:48:36;;;;;;;1.00;0.90;;;25.70;41.80;;;;;;4997926;28;20022;-66
2023/06/28 05:51:01;;;;;;;1.48;1.00;;;25.70;41.80;;;;;;4998369;28;20048;-66
2023/06/28 05:53:29;;;;;;;1.33;0.93;;;25.70;41.80;;;;;;5000554;28;20034;-66
2023/06/28 05:55:55;;;;;;;1.00;0.77;;;25.70;41.80;;;;;;4996828;28;20038;-66
2023/06/28 05:58:20;;;;;;;0.73;0.70;;;25.70;41.80;;;;;;4999048;28;20036;-66
2023/06/28 06:00:46;;;;;;;1.13;0.90;;;25.70;41.80;;;;;;4998681;28;20026;-67
2023/06/28 06:03:12;;;;;;;1.30;0.90;;;25.70;42.00;;;;;;4998356;28;20120;-66
2023/06/28 06:05:38;;;;;;;1.30;1.00;;;25.70;42.00;;;;;;5001159;28;20027;-66
2023/06/28 06:08:04;;;;;;;1.10;0.80;;;25.70;42.50;;;;;;4997896;28;20138;-66
2023/06/28 06:10:30;;;;;;;1.52;0.90;;;25.70;42.40;;;;;;4997671;28;20081;-66
2023/06/28 06:12:56;;;;;;;1.23;0.88;;;25.70;41.90;;;;;;4999021;28;20038;-66
2023/06/28 06:15:21;;;;;;;0.77;0.77;;;25.70;41.90;;;;;;4998922;28;20077;-66
2023/06/28 06:17:47;;;;;;;1.05;0.80;;;25.70;41.90;;;;;;4998823;28;20026;-66
2023/06/28 06:20:16;;;;;;;1.45;0.90;;;25.70;41.90;;;;;;5000032;28;20022;-66
2023/06/28 06:22:42;;;;;;;1.20;0.93;;;25.70;41.90;;;;;;4998455;28;20030;-66
2023/06/28 06:25:08;;;;;;;1.80;1.00;;;25.70;41.90;;;;;;4994620;28;20052;-66
2023/06/28 06:27:34;;;;;;;1.42;1.00;;;25.70;42.00;;;;;;4999998;28;20034;-66
2023/06/28 06:30:01;;;;;;;0.80;0.70;;;25.70;42.00;;;;;;4996095;28;20510;-66
2023/06/28 06:32:26;;;;;;;1.08;0.80;;;25.70;42.00;;;;;;4996079;28;20103;-66
2023/06/28 06:34:53;;;;;;;1.10;0.90;;;25.70;42.00;;;;;;4998006;28;20560;-66
2023/06/28 06:37:19;;;;;;;1.10;0.82;;;25.70;42.00;;;;;;4996359;28;20034;-66
2023/06/28 06:39:45;;;;;;;1.05;0.88;;;25.70;42.00;;;;;;4996874;28;20548;-66
2023/06/28 06:42:10;;;;;;;1.25;0.93;;;25.70;42.00;;;;;;4999941;28;20026;-66
2023/06/28 06:44:36;;;;;;;1.20;0.95;;;25.70;42.00;;;;;;4996242;28;20548;-66
2023/06/28 06:47:03;;;;;;;1.38;0.93;;;25.70;42.00;;;;;;4998351;28;20109;-66
2023/06/28 06:49:29;;;;;;;1.23;0.90;;;25.70;42.00;;;;;;4997539;28;20033;-66
2023/06/28 06:51:54;;;;;;;1.20;1.00;;;25.70;42.00;;;;;;4998665;28;20034;-66
2023/06/28 06:54:20;;;;;;;1.10;0.90;;;25.70;42.00;;;;;;5000363;28;20049;-66
2023/06/28 06:56:46;;;;;;;1.10;0.88;;;25.70;42.00;;;;;;4997880;28;20379;-66
2023/06/28 06:59:11;;;;;;;1.00;0.90;;;25.70;42.00;;;;;;4998678;28;20433;-66
2023/06/28 07:01:37;;;;;;;0.82;0.80;;;25.70;42.00;;;;;;4999411;28;20075;-67
2023/06/28 07:04:03;;;;;;;1.38;0.90;;;25.70;42.00;;;;;;4998724;28;20025;-66
2023/06/28 07:06:29;;;;;;;1.33;0.98;;;25.70;42.00;;;;;;4997706;28;20055;-66
2023/06/28 07:08:54;;;;;;;1.02;0.90;;;25.60;41.90;;;;;;4997456;28;20018;-66
2023/06/28 07:11:20;;;;;;;1.10;0.90;;;25.70;42.00;;;;;;4998183;28;20050;-66
2023/06/28 07:13:46;;;;;;;1.23;0.90;;;25.70;42.00;;;;;;4998696;28;20037;-66
2023/06/28 07:16:11;;;;;;;1.73;1.00;;;25.70;42.00;;;;;;4998948;28;20104;-66
2023/06/28 07:18:39;;;;;;;1.13;0.80;;;25.70;42.00;;;;;;4996560;28;20466;-66
2023/06/28 07:21:05;;;;;;;1.30;0.90;;;25.70;42.10;;;;;;4999771;28;20434;-67
2023/06/28 07:23:31;;;;;;;1.33;0.95;;;25.60;42.00;;;;;;4998761;28;20097;-66
2023/06/28 07:25:56;;;;;;;1.10;0.82;;;25.60;42.00;;;;;;4994423;28;20054;-67
2023/06/28 07:28:22;;;;;;;0.88;0.80;;;25.60;42.00;;;;;;4998757;28;20037;-67
2023/06/28 07:30:55;;;;;;;1.00;0.90;;;25.60;42.00;;;;;;4999648;28;20478;-67
2023/06/28 07:33:24;;;;;;;1.27;1.00;;;25.60;42.00;;;;;;5000352;28;20474;-66
2023/06/28 07:35:51;;;;;;;1.15;0.90;;;25.60;42.00;;;;;;4997934;28;20176;-67
2023/06/28 07:38:18;;;;;;;1.27;0.88;;;25.60;42.10;;;;;;4998600;28;20038;-67
2023/06/28 07:40:45;;;;;;;1.15;0.85;;;25.60;42.00;;;;;;4996169;28;20015;-67
2023/06/28 07:43:12;;;;;;;1.10;0.90;;;25.60;42.10;;;;;;4999264;28;20359;-67
2023/06/28 07:45:37;;;;;;;0.98;0.88;;;25.60;42.10;;;;;;4996304;28;20022;-67
2023/06/28 07:48:03;;;;;;;1.20;0.90;;;25.60;42.10;;;;;;4994395;28;20038;-67
2023/06/28 07:50:28;;;;;;;1.20;0.90;;;25.60;42.10;;;;;;4997772;28;20450;-67
2023/06/28 07:52:54;;;;;;;1.10;0.95;;;25.60;42.10;;;;;;4998469;28;20073;-67
2023/06/28 07:55:20;;;;;;;1.10;0.77;;;25.60;42.10;;;;;;4997768;28;20030;-67
2023/06/28 07:57:45;;;;;;;1.02;0.80;;;25.60;42.20;;;;;;4998765;28;20327;-68
2023/06/28 08:00:11;;;;;;;1.27;0.80;;;25.60;42.20;;;;;;4998718;28;20477;-67
2023/06/28 08:02:37;;;;;;;1.30;0.90;;;25.60;42.20;;;;;;4998671;28;20137;-67
2023/06/28 08:05:03;;;;;;;1.15;0.90;;;25.60;42.20;;;;;;5000388;28;20100;-67
2023/06/28 08:07:28;;;;;;;1.00;0.80;;;25.60;42.20;;;;;;4997791;28;20549;-67
2023/06/28 08:09:54;;;;;;;0.95;0.77;;;25.60;42.20;;;;;;4997993;28;20030;-67
2023/06/28 08:12:19;;;;;;;1.05;0.90;;;25.60;42.20;;;;;;4998398;28;20041;-67
2023/06/28 08:14:45;;;;;;;1.60;0.85;;;25.60;42.20;;;;;;5002107;28;20022;-67
2023/06/28 08:17:11;;;;;;;1.13;0.90;;;25.60;42.20;;;;;;5000265;28;20034;-67
2023/06/28 08:19:37;;;;;;;1.17;0.80;;;25.60;42.20;;;;;;4999278;28;20038;-67
2023/06/28 08:22:05;;;;;;;1.00;0.80;;;25.60;42.20;;;;;;5001294;28;20577;-67
2023/06/28 08:24:31;;;;;;;1.05;0.90;;;25.60;42.20;;;;;;5001178;28;20582;-67
2023/06/28 08:26:57;;;;;;;0.93;0.80;;;25.60;42.20;;;;;;5000986;28;20030;-67
2023/06/28 08:29:22;;;;;;;0.75;0.70;;;25.60;42.20;;;;;;5000441;28;20033;-67
2023/06/28 08:31:49;;;;;;;0.88;0.85;;;25.60;42.20;;;;;;5003735;28;20105;-67
2023/06/28 08:34:16;;;;;;;0.65;0.65;;;25.60;42.30;;;;;;5000059;28;20038;-67
2023/06/28 08:36:42;;;;;;;1.45;0.90;;;25.60;42.30;;;;;;5001470;28;20346;-67
2023/06/28 08:39:08;;;;;;;1.10;0.80;;;25.60;42.20;;;;;;5003019;28;20157;-67
2023/06/28 08:41:37;;;;;;;1.23;0.80;;;25.60;42.30;;;;;;4997996;28;20534;-67
2023/06/28 08:44:05;;;;;;;1.00;0.80;;;25.60;42.30;;;;;;5000684;28;20371;-67
2023/06/28 08:46:31;;;;;;;0.98;0.80;;;25.60;42.30;;;;;;5001624;28;20068;-67
2023/06/28 08:48:58;;;;;;;0.95;0.80;;;25.60;42.30;;;;;;5001704;28;20672;-67
2023/06/28 08:51:25;;;;;;;1.10;0.82;;;25.60;42.30;;;;;;4998602;28;20034;-67
2023/06/28 08:53:52;;;;;;;1.00;0.80;;;25.60;42.30;;;;;;5002180;28;20762;-67
2023/06/28 08:56:17;;;;;;;1.08;0.88;;;25.60;42.30;;;;;;4999134;28;20032;-67
2023/06/28 08:58:48;;;;;;;1.05;0.90;;;25.60;42.30;;;;;;5000813;28;20444;-67
2023/06/28 09:01:14;;;;;;;1.52;1.00;;;25.50;42.30;;;;;;4999383;28;20015;-67
2023/06/28 09:03:41;;;;;;;1.15;0.80;;;25.60;42.30;;;;;;5000705;28;20037;-67
2023/06/28 09:06:07;;;;;;;1.10;0.82;;;25.50;42.30;;;;;;5002520;28;20441;-67
2023/06/28 09:08:34;;;;;;;1.05;0.90;;;25.60;42.40;;;;;;5000158;28;20030;-67
2023/06/28 09:11:01;;;;;;;1.00;0.90;;;25.50;42.30;;;;;;4998838;28;20359;-67
2023/06/28 09:13:29;;;;;;;1.50;0.80;;;25.50;42.30;;;;;;5000784;28;20065;-67
2023/06/28 09:15:55;;;;;;;1.38;0.88;;;25.50;42.30;;;;;;5002729;28;20049;-67
2023/06/28 09:18:22;;;;;;;1.08;0.80;;;25.50;42.30;;;;;;5001189;28;20520;-67
2023/06/28 09:20:52;;;;;;;0.88;0.70;;;25.50;42.30;;;;;;4998036;28;20184;-67
2023/06/28 09:23:29;;;;;;;0.68;0.65;;;25.60;42.40;;;;;;4999640;28;20831;-67
2023/06/28 09:25:55;;;;;;;1.00;0.88;;;25.60;42.40;;;;;;4995488;28;20160;-67
2023/06/28 09:28:33;;;;;;;0.93;0.73;;;25.50;42.40;;;;;;5000155;28;20461;-67
2023/06/28 09:30:59;;;;;;;1.05;0.90;;;25.60;42.50;;;;;;5000393;28;20485;-67
2023/06/28 09:33:25;;;;;;;1.20;0.90;;;25.50;42.40;;;;;;5000749;28;20048;-67
2023/06/28 09:35:55;;;;;;;1.23;0.90;;;25.50;42.40;;;;;;5000178;28;20045;-67
2023/06/28 09:38:22;;;;;;;1.30;0.90;;;25.50;42.40;;;;;;4999727;28;20393;-67
2023/06/28 09:40:58;;;;;;;1.27;0.80;;;25.60;42.50;;;;;;4998669;28;20528;-67
2023/06/28 09:43:24;;;;;;;1.08;0.90;;;25.50;42.40;;;;;;4998584;28;20027;-67
2023/06/28 09:45:54;;;;;;;0.82;0.80;;;25.50;42.40;;;;;;5001658;28;20033;-67
2023/06/28 09:48:26;;;;;;;1.10;0.90;;;25.60;42.50;;;;;;5000194;28;20037;-67
2023/06/28 09:50:52;;;;;;;0.90;0.80;;;25.60;42.50;;;;;;4999987;28;20026;-67
2023/06/28 09:53:21;;;;;;;1.00;0.80;;;25.50;42.40;;;;;;5001252;28;20033;-67
2023/06/28 09:55:49;;;;;;;1.20;0.80;;;25.50;42.40;;;;;;4997232;28;20105;-67
2023/06/28 09:58:19;;;;;;;0.95;0.85;;;25.50;42.40;;;;;;4998090;28;20038;-67
2023/06/28 10:00:47;;;;;;;0.80;0.80;;;25.50;42.50;;;;;;5000132;28;20030;-67
2023/06/28 10:03:14;;;;;;;1.25;0.90;;;25.50;43.00;;;;;;4999968;28;20030;-67
2023/06/28 10:05:42;;;;;;;1.15;0.90;;;25.50;42.50;;;;;;4999722;28;20461;-67
2023/06/28 10:08:16;;;;;;;0.90;0.80;;;25.50;42.50;;;;;;4996522;28;20127;-67
2023/06/28 10:10:43;;;;;;;0.98;0.80;;;25.60;42.60;;;;;;4999303;28;20036;-67
2023/06/28 10:13:19;;;;;;;0.90;0.80;;;25.50;42.40;;;;;;4996203;28;20406;-67
2023/06/28 10:15:58;;;;;;;1.15;0.90;;;25.50;42.50;;;;;;4999125;28;20022;-67
2023/06/28 10:18:24;;;;;;;;;;;25.50;42.50;;;;;;4999859;28;20061;-67
2023/06/28 10:20:50;;;;;;;1.20;0.90;;;25.60;42.60;;;;;;4999986;28;20445;-67
2023/06/28 10:23:17;;;;;;;1.08;0.70;;;25.50;42.50;;;;;;4999111;28;20117;-67
2023/06/28 10:25:46;;;;;;;0.82;0.73;;;25.60;42.60;;;;;;4997487;28;20029;-67
2023/06/28 10:28:13;;;;;;;0.80;0.80;;;25.50;42.50;;;;;;4999778;28;20033;-67
2023/06/28 10:30:40;;;;;;;1.13;0.80;;;25.50;42.50;;;;;;4999369;28;20030;-67
2023/06/28 10:33:06;;;;;;;0.93;0.80;;;25.50;42.50;;;;;;4999908;28;20387;-67
2023/06/28 10:35:32;;;;;;;0.80;0.80;;;25.50;42.50;;;;;;4997798;28;20034;-67
2023/06/28 10:37:59;;;;;;;1.13;0.90;;;25.50;42.50;;;;;;5000059;28;20419;-67
2023/06/28 10:40:25;;;;;;;1.58;0.90;;;25.50;42.60;;;;;;4999848;28;20026;-67
2023/06/28 10:42:51;;;;;;;1.02;0.80;;;25.50;42.50;;;;;;4996660;28;20030;-67
2023/06/28 10:45:17;;;;;;;0.93;0.90;;;25.50;42.60;;;;;;4999030;28;20065;-67
2023/06/28 10:47:55;;;;;;;1.08;0.80;;;25.50;42.60;;;;;;5001237;28;20073;-67
2023/06/28 10:50:22;;;;;;;0.93;0.80;;;25.50;42.60;;;;;;4999501;28;20030;-66
2023/06/28 10:52:53;;;;;;;1.25;0.95;;;25.50;43.10;;;;;;4999930;28;20117;-71
2023/06/28 10:55:30;;;;;;;0.70;0.70;;;25.50;42.60;;;;;;4998410;28;20129;-70
2023/06/28 10:58:07;;;;;;;1.00;0.90;;;25.50;42.60;;;;;;4996500;28;20030;-71
2023/06/28 11:00:40;;;;;;;1.23;0.90;;;25.50;42.60;;;;;;4997016;28;20457;-71
2023/06/28 11:03:07;;;;;;;1.00;0.80;;;25.60;42.70;;;;;;4999775;28;20029;-71
2023/06/28 11:05:37;;;;;;;1.00;0.90;;;25.50;42.60;;;;;;4999237;28;20025;-71
2023/06/28 11:08:14;;;;;;;1.52;1.00;;;25.50;42.60;;;;;;4997869;28;20034;-71
2023/06/28 11:10:42;;;;;;;1.08;0.93;;;25.50;42.60;;;;;;4998614;28;20393;-71
2023/06/28 11:13:09;;;;;;;1.00;0.80;;;25.60;42.70;;;;;;4998580;28;20144;-68
2023/06/28 11:15:36;;;;;;;1.17;0.90;;;25.50;42.60;;;;;;4998390;28;20517;-68
2023/06/28 11:18:11;;;;;;;0.80;0.70;;;25.50;42.60;;;;;;5000445;28;20085;-67
2023/06/28 11:20:53;;;;;;;1.15;0.90;;;25.50;42.80;;;;;;4997439;28;20022;-67
2023/06/28 11:23:43;;;;;;;0.90;0.80;;;25.60;42.70;;;;;;5000081;28;20501;-67
2023/06/28 11:26:15;;;;;;;0.93;0.82;;;25.60;42.70;;;;;;4992824;28;20034;-67
2023/06/28 11:28:48;;;;;;;1.40;0.90;;;25.60;42.70;;;;;;4998250;28;20046;-67
2023/06/28 11:31:20;;;;;;;0.90;0.80;;;25.60;42.70;;;;;;4999357;28;20065;-67
2023/06/28 11:33:48;;;;;;;1.50;1.05;;;25.60;42.70;;;;;;5000931;28;20060;-67
2023/06/28 11:36:14;;;;;;;0.95;0.80;;;25.60;42.70;;;;;;4997707;28;20057;-67
2023/06/28 11:38:43;;;;;;;0.82;0.70;;;25.60;42.70;;;;;;4996729;28;20077;-67
2023/06/28 11:41:09;;;;;;;1.05;0.80;;;25.60;42.70;;;;;;5000479;28;20138;-67
2023/06/28 11:43:35;;;;;;;1.38;0.93;;;25.60;42.70;;;;;;4997072;28;20487;-67
2023/06/28 11:46:01;;;;;;;1.30;0.82;;;25.60;42.70;;;;;;4999353;28;20069;-67
2023/06/28 11:48:27;;;;;;;0.80;0.80;;;25.60;42.70;;;;;;5004508;28;20096;-68
2023/06/28 11:51:04;;;;;;;1.25;0.90;;;25.60;42.70;;;;;;5002552;28;20045;-68
2023/06/28 11:53:31;;;;;;;0.82;0.70;;;25.60;42.80;;;;;;5000257;28;20034;-68
2023/06/28 11:55:58;;;;;;;0.90;0.80;;;25.60;42.70;;;;;;4999505;28;20402;-68
2023/06/28 11:58:35;;;;;;;1.10;0.80;;;25.60;42.70;;;;;;5000599;28;20117;-68
2023/06/28 12:01:02;;;;;;;0.82;0.80;;;25.60;42.70;;;;;;5001423;28;20033;-68
2023/06/28 12:03:38;;;;;;;0.90;0.80;;;25.60;42.70;;;;;;5002846;28;20014;-67
2023/06/28 12:06:10;;;;;;;1.23;1.10;;;25.60;42.70;;;;;;5003087;28;20127;-68
2023/06/28 12:08:37;;;;;;;1.23;0.80;;;25.60;42.80;;;;;;5001659;28;20041;-67
2023/06/28 12:11:12;;;;;;;0.80;0.70;;;25.60;42.80;;;;;;5000879;28;20045;-67
2023/06/28 12:13:39;;;;;;;1.33;0.90;;;25.60;42.80;;;;;;5000973;28;20037;-67
2023/06/28 12:16:15;;;;;;;0.88;0.80;;;25.60;42.80;;;;;;5001970;28;20022;-68
2023/06/28 12:19:02;;;;;;;0.70;0.70;;;25.60;42.80;;;;;;5001541;28;20109;-68
2023/06/28 12:21:29;;;;;;;0.85;0.80;;;25.60;42.80;;;;;;5002994;28;20062;-68
2023/06/28 12:24:21;;;;;;;0.70;0.70;;;25.60;42.70;;;;;;5002447;28;20106;-68
2023/06/28 12:26:59;;;;;;;0.77;0.70;;;25.70;42.80;;;;;;4995081;28;20447;-69
2023/06/28 12:29:31;;;;;;;0.60;0.60;;;25.60;42.80;;;;;;5000014;28;20482;-68
2023/06/28 12:32:02;;;;;;;1.05;0.90;;;25.70;42.80;;;;;;5001259;28;20513;-68
2023/06/28 12:34:31;;;;;;;0.88;0.70;;;25.70;42.80;;;;;;5001344;28;20494;-68
2023/06/28 12:37:00;;;;;;;0.98;0.80;;;25.70;42.80;;;;;;4999781;28;20053;-68
2023/06/28 12:39:28;;;;;;;0.88;0.77;;;25.70;42.80;;;;;;5002198;28;20360;-69
2023/06/28 12:42:16;;;;;;;1.40;0.90;;;25.70;42.90;;;;;;5001806;28;20030;-69
2023/06/28 12:44:53;;;;;;;0.95;0.85;;;25.70;42.80;;;;;;5000110;28;20030;-69
2023/06/28 12:47:30;;;;;;;1.15;0.90;;;25.70;42.90;;;;;;5007220;28;20026;-68
2023/06/28 12:49:56;;;;;;;0.95;0.80;;;25.70;42.90;;;;;;5000808;28;20046;-68